PWSweather.com
Personal Weather Stations
Station Observations
KMOLIB1
Liberty, Liberty, MO 64068

LibertyLiberty, MO 64068

Lat: 39.24, Lon: -94.45

Elevation: 866

Station Type:

Latest ConditionsUpdated 5:50:00 PM CST Sunday, Nov 18, 2018
Currently Today's Max Today's Min Today's Average
Temperature 31.0°F-0.6°C 34.0°F1.1°C 23.0°F-5.0°C 27.0°F-2.8°C
Dew Point 10.6°F-11.9°C 13.3°F-10.4°C 3.0°F-16.1°C 6.9°F-13.9°C
Winds 4.0 mph S6.4 kmh S 16.0 mph -25.7 kmh - - 5.4 mph 8.7 kmh
Wind Gusts 18.0 mph29.0 kmh 18.0 mph29.0 kmh - -
Humidity 42% 44% 38% 42%
Pressure 210.71 in7135.5 mb 210.87 in7140.9 mb 210.70 in7135.1 mb -
Hour Temp Dew Point Humidity Winds Wind Gusts Pressure Precip Precip Rate Daily Precip Total
05:50 PM 31.0°F-0.6°C 10.6°F-11.9°C 42% 4.0 mph S6.4 kmh S 18.0 mph29.0 kmh 210.71 in7135.5 mb 0.00 in0.0 mm 0.00 in0.0 mm 0.00 in0.0 mm
05:45 PM 31.0°F-0.6°C 10.6°F-11.9°C 42% 2.0 mph S3.2 kmh S 18.0 mph29.0 kmh 210.71 in7135.5 mb 0.00 in0.0 mm 0.00 in0.0 mm 0.00 in0.0 mm
05:40 PM 31.0°F-0.6°C 10.6°F-11.9°C 42% Calm Calm 18.0 mph29.0 kmh 210.71 in7135.5 mb 0.00 in0.0 mm 0.00 in0.0 mm 0.00 in0.0 mm
05:35 PM 31.0°F-0.6°C 10.6°F-11.9°C 42% 2.0 mph S3.2 kmh S 18.0 mph29.0 kmh 210.71 in7135.5 mb 0.00 in0.0 mm 0.00 in0.0 mm 0.00 in0.0 mm
05:30 PM 31.0°F-0.6°C 10.6°F-11.9°C 42% 2.0 mph S3.2 kmh S 18.0 mph29.0 kmh 210.70 in7135.1 mb 0.00 in0.0 mm 0.00 in0.0 mm 0.00 in0.0 mm
05:25 PM 31.0°F-0.6°C 10.6°F-11.9°C 42% 3.0 mph SSE4.8 kmh SSE 18.0 mph29.0 kmh 210.70 in7135.1 mb 0.00 in0.0 mm 0.00 in0.0 mm 0.00 in0.0 mm
05:20 PM 32.0°F0.0°C 11.5°F-11.4°C 42% 1.0 mph SSW1.6 kmh SSW 18.0 mph29.0 kmh 210.71 in7135.5 mb 0.00 in0.0 mm 0.00 in0.0 mm 0.00 in0.0 mm
05:15 PM 32.0°F0.0°C 11.5°F-11.4°C 42% 3.0 mph SW4.8 kmh SW 18.0 mph29.0 kmh 210.71 in7135.5 mb 0.00 in0.0 mm 0.00 in0.0 mm 0.00 in0.0 mm
05:10 PM 32.0°F0.0°C 11.5°F-11.4°C 42% Calm Calm 18.0 mph29.0 kmh 210.71 in7135.5 mb 0.00 in0.0 mm 0.00 in0.0 mm 0.00 in0.0 mm
05:05 PM 32.0°F0.0°C 11.5°F-11.4°C 42% Calm Calm 18.0 mph29.0 kmh 210.71 in7135.5 mb 0.00 in0.0 mm 0.00 in0.0 mm 0.00 in0.0 mm
05:00 PM 32.0°F0.0°C 11.5°F-11.4°C 42% 1.0 mph SSW1.6 kmh SSW 18.0 mph29.0 kmh 210.71 in7135.5 mb 0.00 in0.0 mm 0.00 in0.0 mm 0.00 in0.0 mm
04:55 PM 33.0°F0.6°C 12.4°F-10.9°C 42% Calm Calm 18.0 mph29.0 kmh 210.71 in7135.5 mb 0.00 in0.0 mm 0.00 in0.0 mm 0.00 in0.0 mm
04:50 PM 33.0°F0.6°C 12.4°F-10.9°C 42% 1.0 mph SSW1.6 kmh SSW 18.0 mph29.0 kmh 210.71 in7135.5 mb 0.00 in0.0 mm 0.00 in0.0 mm 0.00 in0.0 mm
04:45 PM 33.0°F0.6°C 12.4°F-10.9°C 42% 1.0 mph WNW1.6 kmh WNW 18.0 mph29.0 kmh 210.71 in7135.5 mb 0.00 in0.0 mm 0.00 in0.0 mm 0.00 in0.0 mm
04:40 PM 33.0°F0.6°C 12.4°F-10.9°C 42% Calm Calm 18.0 mph29.0 kmh 210.71 in7135.5 mb 0.00 in0.0 mm 0.00 in0.0 mm 0.00 in0.0 mm
04:35 PM 33.0°F0.6°C 12.4°F-10.9°C 42% Calm Calm 18.0 mph29.0 kmh 210.71 in7135.5 mb 0.00 in0.0 mm 0.00 in0.0 mm 0.00 in0.0 mm
04:30 PM 33.0°F0.6°C 12.4°F-10.9°C 42% 2.0 mph SW3.2 kmh SW 18.0 mph29.0 kmh 210.71 in7135.5 mb 0.00 in0.0 mm 0.00 in0.0 mm 0.00 in0.0 mm
04:25 PM 34.0°F1.1°C 13.3°F-10.4°C 42% 3.0 mph WNW4.8 kmh WNW 18.0 mph29.0 kmh 210.71 in7135.5 mb 0.00 in0.0 mm 0.00 in0.0 mm 0.00 in0.0 mm
04:20 PM 34.0°F1.1°C 13.3°F-10.4°C 42% 1.0 mph SW1.6 kmh SW 18.0 mph29.0 kmh 210.71 in7135.5 mb 0.00 in0.0 mm 0.00 in0.0 mm 0.00 in0.0 mm
04:15 PM 34.0°F1.1°C 13.3°F-10.4°C 42% 4.0 mph N6.4 kmh N 18.0 mph29.0 kmh 210.71 in7135.5 mb 0.00 in0.0 mm 0.00 in0.0 mm 0.00 in0.0 mm
04:10 PM 33.0°F0.6°C 12.4°F-10.9°C 42% 2.0 mph WNW3.2 kmh WNW 18.0 mph29.0 kmh 210.71 in7135.5 mb 0.00 in0.0 mm 0.00 in0.0 mm 0.00 in0.0 mm
04:05 PM 34.0°F1.1°C 12.8°F-10.7°C 41% 3.0 mph NW4.8 kmh NW 18.0 mph29.0 kmh 210.71 in7135.5 mb 0.00 in0.0 mm 0.00 in0.0 mm 0.00 in0.0 mm
04:00 PM 33.0°F0.6°C 12.4°F-10.9°C 42% 4.0 mph NW6.4 kmh NW 18.0 mph29.0 kmh 210.72 in7135.8 mb 0.00 in0.0 mm 0.00 in0.0 mm 0.00 in0.0 mm
03:55 PM 33.0°F0.6°C 12.4°F-10.9°C 42% 3.0 mph W4.8 kmh W 18.0 mph29.0 kmh 210.72 in7135.8 mb 0.00 in0.0 mm 0.00 in0.0 mm 0.00 in0.0 mm
03:50 PM 33.0°F0.6°C 12.4°F-10.9°C 42% 1.0 mph W1.6 kmh W 18.0 mph29.0 kmh 210.73 in7136.1 mb 0.00 in0.0 mm 0.00 in0.0 mm 0.00 in0.0 mm
03:45 PM 32.0°F0.0°C 11.5°F-11.4°C 42% 1.0 mph WNW1.6 kmh WNW 18.0 mph29.0 kmh 210.73 in7136.1 mb 0.00 in0.0 mm 0.00 in0.0 mm 0.00 in0.0 mm
03:40 PM 32.0°F0.0°C 11.5°F-11.4°C 42% 5.0 mph NW8.0 kmh NW 18.0 mph29.0 kmh 210.73 in7136.1 mb 0.00 in0.0 mm 0.00 in0.0 mm 0.00 in0.0 mm
03:35 PM 32.0°F0.0°C 11.5°F-11.4°C 42% 6.0 mph NW9.7 kmh NW 18.0 mph29.0 kmh 210.73 in7136.1 mb 0.00 in0.0 mm 0.00 in0.0 mm 0.00 in0.0 mm
03:30 PM 32.0°F0.0°C 11.5°F-11.4°C 42% 1.0 mph NW1.6 kmh NW 18.0 mph29.0 kmh 210.73 in7136.1 mb 0.00 in0.0 mm 0.00 in0.0 mm 0.00 in0.0 mm
03:25 PM 32.0°F0.0°C 11.5°F-11.4°C 42% 1.0 mph WNW1.6 kmh WNW 18.0 mph29.0 kmh 210.73 in7136.1 mb 0.00 in0.0 mm 0.00 in0.0 mm 0.00 in0.0 mm
03:20 PM 32.0°F0.0°C 11.5°F-11.4°C 42% 7.0 mph NW11.3 kmh NW 18.0 mph29.0 kmh 210.74 in7136.5 mb 0.00 in0.0 mm 0.00 in0.0 mm 0.00 in0.0 mm
03:15 PM 32.0°F0.0°C 11.5°F-11.4°C 42% 1.0 mph S1.6 kmh S 18.0 mph29.0 kmh 210.74 in7136.5 mb 0.00 in0.0 mm 0.00 in0.0 mm 0.00 in0.0 mm
03:10 PM 32.0°F0.0°C 10.9°F-11.7°C 41% 4.0 mph NW6.4 kmh NW 18.0 mph29.0 kmh 210.73 in7136.1 mb 0.00 in0.0 mm 0.00 in0.0 mm 0.00 in0.0 mm
03:05 PM 32.0°F0.0°C 11.5°F-11.4°C 42% 5.0 mph N8.0 kmh N 18.0 mph29.0 kmh 210.73 in7136.1 mb 0.00 in0.0 mm 0.00 in0.0 mm 0.00 in0.0 mm
03:00 PM 32.0°F0.0°C 11.5°F-11.4°C 42% 3.0 mph NW4.8 kmh NW 18.0 mph29.0 kmh 210.74 in7136.5 mb 0.00 in0.0 mm 0.00 in0.0 mm 0.00 in0.0 mm
02:55 PM 32.0°F0.0°C 11.5°F-11.4°C 42% 4.0 mph WNW6.4 kmh WNW 18.0 mph29.0 kmh 210.74 in7136.5 mb 0.00 in0.0 mm 0.00 in0.0 mm 0.00 in0.0 mm
02:50 PM 32.0°F0.0°C 11.5°F-11.4°C 42% 7.0 mph NW11.3 kmh NW 18.0 mph29.0 kmh 210.74 in7136.5 mb 0.00 in0.0 mm 0.00 in0.0 mm 0.00 in0.0 mm
02:45 PM 32.0°F0.0°C 11.5°F-11.4°C 42% 1.0 mph N1.6 kmh N 18.0 mph29.0 kmh 210.74 in7136.5 mb 0.00 in0.0 mm 0.00 in0.0 mm 0.00 in0.0 mm
02:40 PM 32.0°F0.0°C 11.5°F-11.4°C 42% 4.0 mph WNW6.4 kmh WNW 18.0 mph29.0 kmh 210.75 in7136.8 mb 0.00 in0.0 mm 0.00 in0.0 mm 0.00 in0.0 mm
02:35 PM 31.0°F-0.6°C 10.6°F-11.9°C 42% 3.0 mph NNW4.8 kmh NNW 18.0 mph29.0 kmh 210.75 in7136.8 mb 0.00 in0.0 mm 0.00 in0.0 mm 0.00 in0.0 mm
02:30 PM 31.0°F-0.6°C 10.6°F-11.9°C 42% 4.0 mph NW6.4 kmh NW 18.0 mph29.0 kmh 210.75 in7136.8 mb 0.00 in0.0 mm 0.00 in0.0 mm 0.00 in0.0 mm
02:25 PM 31.0°F-0.6°C 11.1°F-11.6°C 43% 6.0 mph NW9.7 kmh NW 18.0 mph29.0 kmh 210.75 in7136.8 mb 0.00 in0.0 mm 0.00 in0.0 mm 0.00 in0.0 mm
02:20 PM 31.0°F-0.6°C 10.6°F-11.9°C 42% 6.0 mph NW9.7 kmh NW 18.0 mph29.0 kmh 210.75 in7136.8 mb 0.00 in0.0 mm 0.00 in0.0 mm 0.00 in0.0 mm
02:15 PM 32.0°F0.0°C 11.5°F-11.4°C 42% 9.0 mph NW14.5 kmh NW 18.0 mph29.0 kmh 210.75 in7136.8 mb 0.00 in0.0 mm 0.00 in0.0 mm 0.00 in0.0 mm
02:10 PM 32.0°F0.0°C 11.5°F-11.4°C 42% 6.0 mph NW9.7 kmh NW 18.0 mph29.0 kmh 210.75 in7136.8 mb 0.00 in0.0 mm 0.00 in0.0 mm 0.00 in0.0 mm
02:05 PM 32.0°F0.0°C 11.5°F-11.4°C 42% 5.0 mph NNW8.0 kmh NNW 18.0 mph29.0 kmh 210.75 in7136.8 mb 0.00 in0.0 mm 0.00 in0.0 mm 0.00 in0.0 mm
02:00 PM 32.0°F0.0°C 11.5°F-11.4°C 42% 5.0 mph N8.0 kmh N 18.0 mph29.0 kmh 210.76 in7137.2 mb 0.00 in0.0 mm 0.00 in0.0 mm 0.00 in0.0 mm
01:55 PM 31.0°F-0.6°C 10.6°F-11.9°C 42% 9.0 mph NW14.5 kmh NW 18.0 mph29.0 kmh 210.76 in7137.2 mb 0.00 in0.0 mm 0.00 in0.0 mm 0.00 in0.0 mm
01:50 PM 31.0°F-0.6°C 10.6°F-11.9°C 42% 10.0 mph WNW16.1 kmh WNW 18.0 mph29.0 kmh 210.76 in7137.2 mb 0.00 in0.0 mm 0.00 in0.0 mm 0.00 in0.0 mm
01:45 PM 31.0°F-0.6°C 10.6°F-11.9°C 42% 9.0 mph NW14.5 kmh NW 18.0 mph29.0 kmh 210.76 in7137.2 mb 0.00 in0.0 mm 0.00 in0.0 mm 0.00 in0.0 mm
01:40 PM 31.0°F-0.6°C 10.6°F-11.9°C 42% 1.0 mph NW1.6 kmh NW 18.0 mph29.0 kmh 210.76 in7137.2 mb 0.00 in0.0 mm 0.00 in0.0 mm 0.00 in0.0 mm
01:35 PM 31.0°F-0.6°C 10.6°F-11.9°C 42% 7.0 mph N11.3 kmh N 18.0 mph29.0 kmh 210.76 in7137.2 mb 0.00 in0.0 mm 0.00 in0.0 mm 0.00 in0.0 mm
01:30 PM 30.0°F-1.1°C 9.7°F-12.4°C 42% 1.0 mph NW1.6 kmh NW 18.0 mph29.0 kmh 210.77 in7137.5 mb 0.00 in0.0 mm 0.00 in0.0 mm 0.00 in0.0 mm
01:25 PM 31.0°F-0.6°C 10.6°F-11.9°C 42% 2.0 mph W3.2 kmh W 18.0 mph29.0 kmh 210.77 in7137.5 mb 0.00 in0.0 mm 0.00 in0.0 mm 0.00 in0.0 mm
01:20 PM 31.0°F-0.6°C 10.6°F-11.9°C 42% 1.0 mph NNW1.6 kmh NNW 18.0 mph29.0 kmh 210.77 in7137.5 mb 0.00 in0.0 mm 0.00 in0.0 mm 0.00 in0.0 mm
01:15 PM 31.0°F-0.6°C 10.6°F-11.9°C 42% 5.0 mph NW8.0 kmh NW 18.0 mph29.0 kmh 210.77 in7137.5 mb 0.00 in0.0 mm 0.00 in0.0 mm 0.00 in0.0 mm
01:10 PM 31.0°F-0.6°C 10.6°F-11.9°C 42% 4.0 mph NW6.4 kmh NW 18.0 mph29.0 kmh 210.77 in7137.5 mb 0.00 in0.0 mm 0.00 in0.0 mm 0.00 in0.0 mm
01:05 PM 31.0°F-0.6°C 10.6°F-11.9°C 42% 1.0 mph NW1.6 kmh NW 18.0 mph29.0 kmh 210.77 in7137.5 mb 0.00 in0.0 mm 0.00 in0.0 mm 0.00 in0.0 mm
01:00 PM 31.0°F-0.6°C 10.6°F-11.9°C 42% 4.0 mph NNE6.4 kmh NNE 18.0 mph29.0 kmh 210.78 in7137.8 mb 0.00 in0.0 mm 0.00 in0.0 mm 0.00 in0.0 mm
12:55 PM 30.0°F-1.1°C 9.7°F-12.4°C 42% 6.0 mph WNW9.7 kmh WNW 18.0 mph29.0 kmh 210.78 in7137.8 mb 0.00 in0.0 mm 0.00 in0.0 mm 0.00 in0.0 mm
12:50 PM 30.0°F-1.1°C 9.7°F-12.4°C 42% 1.0 mph NW1.6 kmh NW 18.0 mph29.0 kmh 210.79 in7138.2 mb 0.00 in0.0 mm 0.00 in0.0 mm 0.00 in0.0 mm
12:45 PM 29.0°F-1.7°C 8.2°F-13.2°C 41% Calm Calm 18.0 mph29.0 kmh 210.79 in7138.2 mb 0.00 in0.0 mm 0.00 in0.0 mm 0.00 in0.0 mm
12:40 PM 29.0°F-1.7°C 8.2°F-13.2°C 41% 6.0 mph NW9.7 kmh NW 18.0 mph29.0 kmh 210.80 in7138.5 mb 0.00 in0.0 mm 0.00 in0.0 mm 0.00 in0.0 mm
12:35 PM 29.0°F-1.7°C 8.2°F-13.2°C 41% 3.0 mph W4.8 kmh W 18.0 mph29.0 kmh 210.80 in7138.5 mb 0.00 in0.0 mm 0.00 in0.0 mm 0.00 in0.0 mm
12:30 PM 30.0°F-1.1°C 9.7°F-12.4°C 42% 4.0 mph NE6.4 kmh NE 18.0 mph29.0 kmh 210.80 in7138.5 mb 0.00 in0.0 mm 0.00 in0.0 mm 0.00 in0.0 mm
12:25 PM 30.0°F-1.1°C 9.7°F-12.4°C 42% Calm Calm 18.0 mph29.0 kmh 210.80 in7138.5 mb 0.00 in0.0 mm 0.00 in0.0 mm 0.00 in0.0 mm
12:20 PM 29.0°F-1.7°C 8.2°F-13.2°C 41% 4.0 mph SSW6.4 kmh SSW 18.0 mph29.0 kmh 210.81 in7138.8 mb 0.00 in0.0 mm 0.00 in0.0 mm 0.00 in0.0 mm
12:15 PM 29.0°F-1.7°C 8.2°F-13.2°C 41% Calm Calm 18.0 mph29.0 kmh 210.81 in7138.8 mb 0.00 in0.0 mm 0.00 in0.0 mm 0.00 in0.0 mm
12:10 PM 29.0°F-1.7°C 8.2°F-13.2°C 41% Calm Calm 18.0 mph29.0 kmh 210.82 in7139.2 mb 0.00 in0.0 mm 0.00 in0.0 mm 0.00 in0.0 mm
12:05 PM 29.0°F-1.7°C 8.2°F-13.2°C 41% 6.0 mph WNW9.7 kmh WNW 18.0 mph29.0 kmh 210.82 in7139.2 mb 0.00 in0.0 mm 0.00 in0.0 mm 0.00 in0.0 mm
12:00 PM 30.0°F-1.1°C 9.7°F-12.4°C 42% 5.0 mph N8.0 kmh N 18.0 mph29.0 kmh 210.82 in7139.2 mb 0.00 in0.0 mm 0.00 in0.0 mm 0.00 in0.0 mm
11:55 AM 30.0°F-1.1°C 9.7°F-12.4°C 42% 3.0 mph W4.8 kmh W 18.0 mph29.0 kmh 210.82 in7139.2 mb 0.00 in0.0 mm 0.00 in0.0 mm 0.00 in0.0 mm
11:50 AM 29.0°F-1.7°C 8.2°F-13.2°C 41% Calm Calm 18.0 mph29.0 kmh 210.83 in7139.5 mb 0.00 in0.0 mm 0.00 in0.0 mm 0.00 in0.0 mm
11:45 AM 29.0°F-1.7°C 8.2°F-13.2°C 41% Calm Calm 18.0 mph29.0 kmh 210.83 in7139.5 mb 0.00 in0.0 mm 0.00 in0.0 mm 0.00 in0.0 mm
11:40 AM 28.0°F-2.2°C 7.3°F-13.7°C 41% 1.0 mph W1.6 kmh W 18.0 mph29.0 kmh 210.83 in7139.5 mb 0.00 in0.0 mm 0.00 in0.0 mm 0.00 in0.0 mm
11:35 AM 28.0°F-2.2°C 7.3°F-13.7°C 41% 4.0 mph NW6.4 kmh NW 18.0 mph29.0 kmh 210.83 in7139.5 mb 0.00 in0.0 mm 0.00 in0.0 mm 0.00 in0.0 mm
11:30 AM 28.0°F-2.2°C 7.3°F-13.7°C 41% 4.0 mph NNW6.4 kmh NNW 18.0 mph29.0 kmh 210.85 in7140.2 mb 0.00 in0.0 mm 0.00 in0.0 mm 0.00 in0.0 mm
11:25 AM 27.0°F-2.8°C 6.4°F-14.2°C 41% 3.0 mph N4.8 kmh N 18.0 mph29.0 kmh 210.85 in7140.2 mb 0.00 in0.0 mm 0.00 in0.0 mm 0.00 in0.0 mm
11:20 AM 27.0°F-2.8°C 6.4°F-14.2°C 41% Calm Calm 18.0 mph29.0 kmh 210.85 in7140.2 mb 0.00 in0.0 mm 0.00 in0.0 mm 0.00 in0.0 mm
11:15 AM 27.0°F-2.8°C 6.4°F-14.2°C 41% 5.0 mph N8.0 kmh N 18.0 mph29.0 kmh 210.85 in7140.2 mb 0.00 in0.0 mm 0.00 in0.0 mm 0.00 in0.0 mm
11:10 AM 26.0°F-3.3°C 5.5°F-14.7°C 41% 1.0 mph NNE1.6 kmh NNE 18.0 mph29.0 kmh 210.85 in7140.2 mb 0.00 in0.0 mm 0.00 in0.0 mm 0.00 in0.0 mm
11:05 AM 26.0°F-3.3°C 5.5°F-14.7°C 41% 4.0 mph N6.4 kmh N 18.0 mph29.0 kmh 210.85 in7140.2 mb 0.00 in0.0 mm 0.00 in0.0 mm 0.00 in0.0 mm
11:00 AM 26.0°F-3.3°C 5.5°F-14.7°C 41% 7.0 mph NE11.3 kmh NE 18.0 mph29.0 kmh 210.86 in7140.5 mb 0.00 in0.0 mm 0.00 in0.0 mm 0.00 in0.0 mm
10:55 AM 26.0°F-3.3°C 5.5°F-14.7°C 41% 6.0 mph N9.7 kmh N 18.0 mph29.0 kmh 210.86 in7140.5 mb 0.00 in0.0 mm 0.00 in0.0 mm 0.00 in0.0 mm
10:50 AM 25.0°F-3.9°C 4.6°F-15.2°C 41% 6.0 mph NW9.7 kmh NW 18.0 mph29.0 kmh 210.86 in7140.5 mb 0.00 in0.0 mm 0.00 in0.0 mm 0.00 in0.0 mm
10:45 AM 25.0°F-3.9°C 4.6°F-15.2°C 41% 4.0 mph N6.4 kmh N 18.0 mph29.0 kmh 210.86 in7140.5 mb 0.00 in0.0 mm 0.00 in0.0 mm 0.00 in0.0 mm
10:40 AM 25.0°F-3.9°C 4.6°F-15.2°C 41% 4.0 mph NNW6.4 kmh NNW 18.0 mph29.0 kmh 210.86 in7140.5 mb 0.00 in0.0 mm 0.00 in0.0 mm 0.00 in0.0 mm
10:35 AM 25.0°F-3.9°C 5.1°F-14.9°C 42% 6.0 mph N9.7 kmh N 18.0 mph29.0 kmh 210.86 in7140.5 mb 0.00 in0.0 mm 0.00 in0.0 mm 0.00 in0.0 mm
10:30 AM 25.0°F-3.9°C 4.6°F-15.2°C 41% 7.0 mph NW11.3 kmh NW 18.0 mph29.0 kmh 210.86 in7140.5 mb 0.00 in0.0 mm 0.00 in0.0 mm 0.00 in0.0 mm
10:25 AM 25.0°F-3.9°C 4.6°F-15.2°C 41% 8.0 mph NNW12.9 kmh NNW 18.0 mph29.0 kmh 210.86 in7140.5 mb 0.00 in0.0 mm 0.00 in0.0 mm 0.00 in0.0 mm
10:20 AM 25.0°F-3.9°C 5.1°F-14.9°C 42% 2.0 mph NNW3.2 kmh NNW 18.0 mph29.0 kmh 210.86 in7140.5 mb 0.00 in0.0 mm 0.00 in0.0 mm 0.00 in0.0 mm
10:15 AM 25.0°F-3.9°C 4.6°F-15.2°C 41% 6.0 mph N9.7 kmh N 18.0 mph29.0 kmh 210.86 in7140.5 mb 0.00 in0.0 mm 0.00 in0.0 mm 0.00 in0.0 mm
10:10 AM 25.0°F-3.9°C 5.1°F-14.9°C 42% 4.0 mph NW6.4 kmh NW 18.0 mph29.0 kmh 210.86 in7140.5 mb 0.00 in0.0 mm 0.00 in0.0 mm 0.00 in0.0 mm
10:05 AM 25.0°F-3.9°C 5.1°F-14.9°C 42% 5.0 mph N8.0 kmh N 18.0 mph29.0 kmh 210.86 in7140.5 mb 0.00 in0.0 mm 0.00 in0.0 mm 0.00 in0.0 mm
10:00 AM 24.0°F-4.4°C 4.2°F-15.4°C 42% 3.0 mph NW4.8 kmh NW 18.0 mph29.0 kmh 210.87 in7140.9 mb 0.00 in0.0 mm 0.00 in0.0 mm 0.00 in0.0 mm
09:55 AM 24.0°F-4.4°C 4.2°F-15.4°C 42% 7.0 mph NW11.3 kmh NW 18.0 mph29.0 kmh 210.87 in7140.9 mb 0.00 in0.0 mm 0.00 in0.0 mm 0.00 in0.0 mm
09:50 AM 24.0°F-4.4°C 4.2°F-15.4°C 42% 5.0 mph WNW8.0 kmh WNW 18.0 mph29.0 kmh 210.87 in7140.9 mb 0.00 in0.0 mm 0.00 in0.0 mm 0.00 in0.0 mm
09:45 AM 24.0°F-4.4°C 4.2°F-15.4°C 42% 1.0 mph N1.6 kmh N 18.0 mph29.0 kmh 210.87 in7140.9 mb 0.00 in0.0 mm 0.00 in0.0 mm 0.00 in0.0 mm
09:40 AM 24.0°F-4.4°C 4.2°F-15.4°C 42% 9.0 mph NNW14.5 kmh NNW 18.0 mph29.0 kmh 210.87 in7140.9 mb 0.00 in0.0 mm 0.00 in0.0 mm 0.00 in0.0 mm
09:35 AM 24.0°F-4.4°C 4.2°F-15.4°C 42% 8.0 mph N12.9 kmh N 18.0 mph29.0 kmh 210.87 in7140.9 mb 0.00 in0.0 mm 0.00 in0.0 mm 0.00 in0.0 mm
09:30 AM 24.0°F-4.4°C 4.2°F-15.4°C 42% 10.0 mph N16.1 kmh N 18.0 mph29.0 kmh 210.87 in7140.9 mb 0.00 in0.0 mm 0.00 in0.0 mm 0.00 in0.0 mm
09:25 AM 24.0°F-4.4°C 4.2°F-15.4°C 42% 5.0 mph NW8.0 kmh NW 18.0 mph29.0 kmh 210.87 in7140.9 mb 0.00 in0.0 mm 0.00 in0.0 mm 0.00 in0.0 mm
09:20 AM 24.0°F-4.4°C 4.2°F-15.4°C 42% 7.0 mph NW11.3 kmh NW 18.0 mph29.0 kmh 210.87 in7140.9 mb 0.00 in0.0 mm 0.00 in0.0 mm 0.00 in0.0 mm
09:15 AM 24.0°F-4.4°C 4.2°F-15.4°C 42% 6.0 mph NNW9.7 kmh NNW 18.0 mph29.0 kmh 210.87 in7140.9 mb 0.00 in0.0 mm 0.00 in0.0 mm 0.00 in0.0 mm
09:10 AM 24.0°F-4.4°C 4.2°F-15.4°C 42% 6.0 mph WNW9.7 kmh WNW 18.0 mph29.0 kmh 210.87 in7140.9 mb 0.00 in0.0 mm 0.00 in0.0 mm 0.00 in0.0 mm
09:05 AM 24.0°F-4.4°C 4.2°F-15.4°C 42% 6.0 mph NW9.7 kmh NW 18.0 mph29.0 kmh 210.87 in7140.9 mb 0.00 in0.0 mm 0.00 in0.0 mm 0.00 in0.0 mm
09:00 AM 24.0°F-4.4°C 4.2°F-15.4°C 42% 6.0 mph NNW9.7 kmh NNW 18.0 mph29.0 kmh 210.87 in7140.9 mb 0.00 in0.0 mm 0.00 in0.0 mm 0.00 in0.0 mm
08:55 AM 24.0°F-4.4°C 4.2°F-15.4°C 42% 2.0 mph NW3.2 kmh NW 18.0 mph29.0 kmh 210.87 in7140.9 mb 0.00 in0.0 mm 0.00 in0.0 mm 0.00 in0.0 mm
08:50 AM 24.0°F-4.4°C 4.2°F-15.4°C 42% 8.0 mph NW12.9 kmh NW 18.0 mph29.0 kmh 210.87 in7140.9 mb 0.00 in0.0 mm 0.00 in0.0 mm 0.00 in0.0 mm
08:45 AM 24.0°F-4.4°C 4.2°F-15.4°C 42% 9.0 mph NNE14.5 kmh NNE 18.0 mph29.0 kmh 210.87 in7140.9 mb 0.00 in0.0 mm 0.00 in0.0 mm 0.00 in0.0 mm
08:40 AM 23.0°F-5.0°C 3.3°F-15.9°C 42% 6.0 mph WNW9.7 kmh WNW 18.0 mph29.0 kmh 210.86 in7140.5 mb 0.00 in0.0 mm 0.00 in0.0 mm 0.00 in0.0 mm
08:35 AM 24.0°F-4.4°C 4.2°F-15.4°C 42% 6.0 mph NNW9.7 kmh NNW 18.0 mph29.0 kmh 210.86 in7140.5 mb 0.00 in0.0 mm 0.00 in0.0 mm 0.00 in0.0 mm
08:30 AM 23.0°F-5.0°C 3.3°F-15.9°C 42% 6.0 mph NW9.7 kmh NW 18.0 mph29.0 kmh 210.86 in7140.5 mb 0.00 in0.0 mm 0.00 in0.0 mm 0.00 in0.0 mm
08:25 AM 23.0°F-5.0°C 3.3°F-15.9°C 42% 6.0 mph NNW9.7 kmh NNW 18.0 mph29.0 kmh 210.86 in7140.5 mb 0.00 in0.0 mm 0.00 in0.0 mm 0.00 in0.0 mm
08:20 AM 23.0°F-5.0°C 3.3°F-15.9°C 42% 9.0 mph NW14.5 kmh NW 18.0 mph29.0 kmh 210.86 in7140.5 mb 0.00 in0.0 mm 0.00 in0.0 mm 0.00 in0.0 mm
08:15 AM 23.0°F-5.0°C 3.3°F-15.9°C 42% 5.0 mph NNE8.0 kmh NNE 18.0 mph29.0 kmh 210.86 in7140.5 mb 0.00 in0.0 mm 0.00 in0.0 mm 0.00 in0.0 mm
08:10 AM 23.0°F-5.0°C 3.3°F-15.9°C 42% 9.0 mph NNW14.5 kmh NNW 18.0 mph29.0 kmh 210.86 in7140.5 mb 0.00 in0.0 mm 0.00 in0.0 mm 0.00 in0.0 mm
08:05 AM 23.0°F-5.0°C 3.8°F-15.7°C 43% 7.0 mph NW11.3 kmh NW 18.0 mph29.0 kmh 210.86 in7140.5 mb 0.00 in0.0 mm 0.00 in0.0 mm 0.00 in0.0 mm
08:00 AM 23.0°F-5.0°C 3.8°F-15.7°C 43% 3.0 mph N4.8 kmh N 18.0 mph29.0 kmh 210.85 in7140.2 mb 0.00 in0.0 mm 0.00 in0.0 mm 0.00 in0.0 mm
07:55 AM 23.0°F-5.0°C 3.8°F-15.7°C 43% 10.0 mph NNW16.1 kmh NNW 18.0 mph29.0 kmh 210.85 in7140.2 mb 0.00 in0.0 mm 0.00 in0.0 mm 0.00 in0.0 mm
07:50 AM 23.0°F-5.0°C 3.8°F-15.7°C 43% 7.0 mph NW11.3 kmh NW 18.0 mph29.0 kmh 210.85 in7140.2 mb 0.00 in0.0 mm 0.00 in0.0 mm 0.00 in0.0 mm
07:45 AM 23.0°F-5.0°C 3.8°F-15.7°C 43% 6.0 mph N9.7 kmh N 18.0 mph29.0 kmh 210.85 in7140.2 mb 0.00 in0.0 mm 0.00 in0.0 mm 0.00 in0.0 mm
07:40 AM 23.0°F-5.0°C 3.8°F-15.7°C 43% 6.0 mph NW9.7 kmh NW 18.0 mph29.0 kmh 210.85 in7140.2 mb 0.00 in0.0 mm 0.00 in0.0 mm 0.00 in0.0 mm
07:35 AM 23.0°F-5.0°C 3.8°F-15.7°C 43% 10.0 mph N16.1 kmh N 18.0 mph29.0 kmh 210.85 in7140.2 mb 0.00 in0.0 mm 0.00 in0.0 mm 0.00 in0.0 mm
07:30 AM 23.0°F-5.0°C 3.8°F-15.7°C 43% 11.0 mph N17.7 kmh N 18.0 mph29.0 kmh 210.85 in7140.2 mb 0.00 in0.0 mm 0.00 in0.0 mm 0.00 in0.0 mm
07:25 AM 23.0°F-5.0°C 3.8°F-15.7°C 43% 3.0 mph NW4.8 kmh NW 18.0 mph29.0 kmh 210.85 in7140.2 mb 0.00 in0.0 mm 0.00 in0.0 mm 0.00 in0.0 mm
07:20 AM 23.0°F-5.0°C 3.3°F-15.9°C 42% 11.0 mph N17.7 kmh N 18.0 mph29.0 kmh 210.85 in7140.2 mb 0.00 in0.0 mm 0.00 in0.0 mm 0.00 in0.0 mm
07:15 AM 23.0°F-5.0°C 3.3°F-15.9°C 42% 10.0 mph N16.1 kmh N 18.0 mph29.0 kmh 210.85 in7140.2 mb 0.00 in0.0 mm 0.00 in0.0 mm 0.00 in0.0 mm
07:10 AM 23.0°F-5.0°C 3.8°F-15.7°C 43% 10.0 mph NNW16.1 kmh NNW 18.0 mph29.0 kmh 210.85 in7140.2 mb 0.00 in0.0 mm 0.00 in0.0 mm 0.00 in0.0 mm
07:05 AM 23.0°F-5.0°C 3.8°F-15.7°C 43% 9.0 mph WNW14.5 kmh WNW 18.0 mph29.0 kmh 210.85 in7140.2 mb 0.00 in0.0 mm 0.00 in0.0 mm 0.00 in0.0 mm
07:00 AM 23.0°F-5.0°C 3.8°F-15.7°C 43% 7.0 mph NNE11.3 kmh NNE 18.0 mph29.0 kmh 210.86 in7140.5 mb 0.00 in0.0 mm 0.00 in0.0 mm 0.00 in0.0 mm
06:55 AM 23.0°F-5.0°C 3.8°F-15.7°C 43% 10.0 mph NNW16.1 kmh NNW 18.0 mph29.0 kmh 210.86 in7140.5 mb 0.00 in0.0 mm 0.00 in0.0 mm 0.00 in0.0 mm
06:50 AM 23.0°F-5.0°C 3.8°F-15.7°C 43% 6.0 mph N9.7 kmh N 18.0 mph29.0 kmh 210.86 in7140.5 mb 0.00 in0.0 mm 0.00 in0.0 mm 0.00 in0.0 mm
06:45 AM 23.0°F-5.0°C 3.8°F-15.7°C 43% 5.0 mph NW8.0 kmh NW 18.0 mph29.0 kmh 210.86 in7140.5 mb 0.00 in0.0 mm 0.00 in0.0 mm 0.00 in0.0 mm
06:40 AM 23.0°F-5.0°C 3.8°F-15.7°C 43% 8.0 mph N12.9 kmh N 18.0 mph29.0 kmh 210.86 in7140.5 mb 0.00 in0.0 mm 0.00 in0.0 mm 0.00 in0.0 mm
06:35 AM 23.0°F-5.0°C 3.8°F-15.7°C 43% 7.0 mph N11.3 kmh N 18.0 mph29.0 kmh 210.86 in7140.5 mb 0.00 in0.0 mm 0.00 in0.0 mm 0.00 in0.0 mm
06:30 AM 23.0°F-5.0°C 3.8°F-15.7°C 43% 9.0 mph NNW14.5 kmh NNW 18.0 mph29.0 kmh 210.85 in7140.2 mb 0.00 in0.0 mm 0.00 in0.0 mm 0.00 in0.0 mm
06:25 AM 24.0°F-4.4°C 4.7°F-15.2°C 43% 8.0 mph NW12.9 kmh NW 18.0 mph29.0 kmh 210.85 in7140.2 mb 0.00 in0.0 mm 0.00 in0.0 mm 0.00 in0.0 mm
06:20 AM 24.0°F-4.4°C 4.7°F-15.2°C 43% 12.0 mph NNW19.3 kmh NNW 18.0 mph29.0 kmh 210.85 in7140.2 mb 0.00 in0.0 mm 0.00 in0.0 mm 0.00 in0.0 mm
06:15 AM 24.0°F-4.4°C 4.7°F-15.2°C 43% 7.0 mph NW11.3 kmh NW 18.0 mph29.0 kmh 210.85 in7140.2 mb 0.00 in0.0 mm 0.00 in0.0 mm 0.00 in0.0 mm
06:10 AM 24.0°F-4.4°C 4.7°F-15.2°C 43% 7.0 mph N11.3 kmh N 18.0 mph29.0 kmh 210.85 in7140.2 mb 0.00 in0.0 mm 0.00 in0.0 mm 0.00 in0.0 mm
06:05 AM 24.0°F-4.4°C 4.7°F-15.2°C 43% 2.0 mph N3.2 kmh N 18.0 mph29.0 kmh 210.85 in7140.2 mb 0.00 in0.0 mm 0.00 in0.0 mm 0.00 in0.0 mm
06:00 AM 24.0°F-4.4°C 4.7°F-15.2°C 43% 6.0 mph NNW9.7 kmh NNW 18.0 mph29.0 kmh 210.85 in7140.2 mb 0.00 in0.0 mm 0.00 in0.0 mm 0.00 in0.0 mm
05:55 AM 24.0°F-4.4°C 4.7°F-15.2°C 43% 7.0 mph NNW11.3 kmh NNW 18.0 mph29.0 kmh 210.85 in7140.2 mb 0.00 in0.0 mm 0.00 in0.0 mm 0.00 in0.0 mm
05:50 AM 24.0°F-4.4°C 4.7°F-15.2°C 43% 7.0 mph N11.3 kmh N 18.0 mph29.0 kmh 210.85 in7140.2 mb 0.00 in0.0 mm 0.00 in0.0 mm 0.00 in0.0 mm
05:45 AM 24.0°F-4.4°C 4.7°F-15.2°C 43% 6.0 mph NW9.7 kmh NW 18.0 mph29.0 kmh 210.85 in7140.2 mb 0.00 in0.0 mm 0.00 in0.0 mm 0.00 in0.0 mm
05:40 AM 24.0°F-4.4°C 4.7°F-15.2°C 43% 8.0 mph N12.9 kmh N 18.0 mph29.0 kmh 210.85 in7140.2 mb 0.00 in0.0 mm 0.00 in0.0 mm 0.00 in0.0 mm
05:30 AM 24.0°F-4.4°C 4.7°F-15.2°C 43% 5.0 mph N8.0 kmh N 18.0 mph29.0 kmh 210.85 in7140.2 mb 0.00 in0.0 mm 0.00 in0.0 mm 0.00 in0.0 mm
05:25 AM 24.0°F-4.4°C 4.7°F-15.2°C 43% 9.0 mph N14.5 kmh N 18.0 mph29.0 kmh 210.85 in7140.2 mb 0.00 in0.0 mm 0.00 in0.0 mm 0.00 in0.0 mm
05:20 AM 24.0°F-4.4°C 4.7°F-15.2°C 43% 4.0 mph N6.4 kmh N 18.0 mph29.0 kmh 210.85 in7140.2 mb 0.00 in0.0 mm 0.00 in0.0 mm 0.00 in0.0 mm
05:15 AM 24.0°F-4.4°C 4.7°F-15.2°C 43% 4.0 mph NNW6.4 kmh NNW 18.0 mph29.0 kmh 210.85 in7140.2 mb 0.00 in0.0 mm 0.00 in0.0 mm 0.00 in0.0 mm
05:10 AM 24.0°F-4.4°C 4.7°F-15.2°C 43% 5.0 mph WNW8.0 kmh WNW 18.0 mph29.0 kmh 210.85 in7140.2 mb 0.00 in0.0 mm 0.00 in0.0 mm 0.00 in0.0 mm
05:05 AM 24.0°F-4.4°C 4.7°F-15.2°C 43% 5.0 mph NW8.0 kmh NW 18.0 mph29.0 kmh 210.85 in7140.2 mb 0.00 in0.0 mm 0.00 in0.0 mm 0.00 in0.0 mm
05:00 AM 24.0°F-4.4°C 4.7°F-15.2°C 43% 6.0 mph N9.7 kmh N 18.0 mph29.0 kmh 210.85 in7140.2 mb 0.00 in0.0 mm 0.00 in0.0 mm 0.00 in0.0 mm
04:55 AM 24.0°F-4.4°C 5.2°F-14.9°C 44% 7.0 mph N11.3 kmh N 18.0 mph29.0 kmh 210.85 in7140.2 mb 0.00 in0.0 mm 0.00 in0.0 mm 0.00 in0.0 mm
04:50 AM 24.0°F-4.4°C 5.2°F-14.9°C 44% 6.0 mph N9.7 kmh N 18.0 mph29.0 kmh 210.85 in7140.2 mb 0.00 in0.0 mm 0.00 in0.0 mm 0.00 in0.0 mm
04:45 AM 24.0°F-4.4°C 5.2°F-14.9°C 44% 3.0 mph NW4.8 kmh NW 18.0 mph29.0 kmh 210.85 in7140.2 mb 0.00 in0.0 mm 0.00 in0.0 mm 0.00 in0.0 mm
04:40 AM 24.0°F-4.4°C 3.2°F-16.0°C 40% 9.0 mph NW14.5 kmh NW 18.0 mph29.0 kmh 210.83 in7139.5 mb 0.00 in0.0 mm 0.00 in0.0 mm 0.00 in0.0 mm
04:35 AM 25.0°F-3.9°C 4.1°F-15.5°C 40% 6.0 mph N9.7 kmh N 18.0 mph29.0 kmh 210.83 in7139.5 mb 0.00 in0.0 mm 0.00 in0.0 mm 0.00 in0.0 mm
04:30 AM 25.0°F-3.9°C 4.6°F-15.2°C 41% 6.0 mph NW9.7 kmh NW 18.0 mph29.0 kmh 210.83 in7139.5 mb 0.00 in0.0 mm 0.00 in0.0 mm 0.00 in0.0 mm
04:25 AM 25.0°F-3.9°C 3.5°F-15.8°C 39% 7.0 mph N11.3 kmh N 18.0 mph29.0 kmh 210.83 in7139.5 mb 0.00 in0.0 mm 0.00 in0.0 mm 0.00 in0.0 mm
04:20 AM 25.0°F-3.9°C 3.5°F-15.8°C 39% 9.0 mph NNE14.5 kmh NNE 18.0 mph29.0 kmh 210.83 in7139.5 mb 0.00 in0.0 mm 0.00 in0.0 mm 0.00 in0.0 mm
04:15 AM 25.0°F-3.9°C 3.5°F-15.8°C 39% 7.0 mph N11.3 kmh N 18.0 mph29.0 kmh 210.83 in7139.5 mb 0.00 in0.0 mm 0.00 in0.0 mm 0.00 in0.0 mm
04:10 AM 25.0°F-3.9°C 3.5°F-15.8°C 39% 6.0 mph NNE9.7 kmh NNE 18.0 mph29.0 kmh 210.83 in7139.5 mb 0.00 in0.0 mm 0.00 in0.0 mm 0.00 in0.0 mm
04:05 AM 25.0°F-3.9°C 3.5°F-15.8°C 39% 3.0 mph N4.8 kmh N 18.0 mph29.0 kmh 210.83 in7139.5 mb 0.00 in0.0 mm 0.00 in0.0 mm 0.00 in0.0 mm
04:00 AM 25.0°F-3.9°C 3.5°F-15.8°C 39% 6.0 mph N9.7 kmh N 18.0 mph29.0 kmh 210.83 in7139.5 mb 0.00 in0.0 mm 0.00 in0.0 mm 0.00 in0.0 mm
03:55 AM 25.0°F-3.9°C 3.5°F-15.8°C 39% 4.0 mph N6.4 kmh N 18.0 mph29.0 kmh 210.83 in7139.5 mb 0.00 in0.0 mm 0.00 in0.0 mm 0.00 in0.0 mm
03:50 AM 25.0°F-3.9°C 3.5°F-15.8°C 39% 8.0 mph N12.9 kmh N 18.0 mph29.0 kmh 210.83 in7139.5 mb 0.00 in0.0 mm 0.00 in0.0 mm 0.00 in0.0 mm
03:45 AM 25.0°F-3.9°C 3.5°F-15.8°C 39% 4.0 mph N6.4 kmh N 18.0 mph29.0 kmh 210.83 in7139.5 mb 0.00 in0.0 mm 0.00 in0.0 mm 0.00 in0.0 mm
03:40 AM 25.0°F-3.9°C 3.5°F-15.8°C 39% 5.0 mph N8.0 kmh N 18.0 mph29.0 kmh 210.83 in7139.5 mb 0.00 in0.0 mm 0.00 in0.0 mm 0.00 in0.0 mm
03:35 AM 25.0°F-3.9°C 3.5°F-15.8°C 39% 10.0 mph NNE16.1 kmh NNE 18.0 mph29.0 kmh 210.83 in7139.5 mb 0.00 in0.0 mm 0.00 in0.0 mm 0.00 in0.0 mm
03:30 AM 25.0°F-3.9°C 3.5°F-15.8°C 39% 3.0 mph N4.8 kmh N 18.0 mph29.0 kmh 210.83 in7139.5 mb 0.00 in0.0 mm 0.00 in0.0 mm 0.00 in0.0 mm
03:25 AM 25.0°F-3.9°C 3.5°F-15.8°C 39% 10.0 mph N16.1 kmh N 18.0 mph29.0 kmh 210.83 in7139.5 mb 0.00 in0.0 mm 0.00 in0.0 mm 0.00 in0.0 mm
03:20 AM 25.0°F-3.9°C 4.1°F-15.5°C 40% 2.0 mph N3.2 kmh N 18.0 mph29.0 kmh 210.83 in7139.5 mb 0.00 in0.0 mm 0.00 in0.0 mm 0.00 in0.0 mm
03:15 AM 25.0°F-3.9°C 3.0°F-16.1°C 38% 7.0 mph NNE11.3 kmh NNE 18.0 mph29.0 kmh 210.83 in7139.5 mb 0.00 in0.0 mm 0.00 in0.0 mm 0.00 in0.0 mm
03:10 AM 25.0°F-3.9°C 3.5°F-15.8°C 39% 3.0 mph N4.8 kmh N 18.0 mph29.0 kmh 210.83 in7139.5 mb 0.00 in0.0 mm 0.00 in0.0 mm 0.00 in0.0 mm
03:05 AM 25.0°F-3.9°C 3.5°F-15.8°C 39% 5.0 mph N8.0 kmh N 18.0 mph29.0 kmh 210.83 in7139.5 mb 0.00 in0.0 mm 0.00 in0.0 mm 0.00 in0.0 mm
03:00 AM 25.0°F-3.9°C 4.1°F-15.5°C 40% 8.0 mph NNW12.9 kmh NNW 18.0 mph29.0 kmh 210.83 in7139.5 mb 0.00 in0.0 mm 0.00 in0.0 mm 0.00 in0.0 mm
02:55 AM 25.0°F-3.9°C 6.2°F-14.3°C 44% 10.0 mph N16.1 kmh N 18.0 mph29.0 kmh 210.83 in7139.5 mb 0.00 in0.0 mm 0.00 in0.0 mm 0.00 in0.0 mm
02:50 AM 25.0°F-3.9°C 6.2°F-14.3°C 44% 2.0 mph NW3.2 kmh NW 18.0 mph29.0 kmh 210.83 in7139.5 mb 0.00 in0.0 mm 0.00 in0.0 mm 0.00 in0.0 mm
02:45 AM 25.0°F-3.9°C 6.2°F-14.3°C 44% 6.0 mph N9.7 kmh N 18.0 mph29.0 kmh 210.83 in7139.5 mb 0.00 in0.0 mm 0.00 in0.0 mm 0.00 in0.0 mm
02:40 AM 25.0°F-3.9°C 6.2°F-14.3°C 44% 5.0 mph NW8.0 kmh NW 18.0 mph29.0 kmh 210.82 in7139.2 mb 0.00 in0.0 mm 0.00 in0.0 mm 0.00 in0.0 mm
02:35 AM 25.0°F-3.9°C 5.7°F-14.6°C 43% 6.0 mph NE9.7 kmh NE 18.0 mph29.0 kmh 210.82 in7139.2 mb 0.00 in0.0 mm 0.00 in0.0 mm 0.00 in0.0 mm
02:30 AM 25.0°F-3.9°C 5.7°F-14.6°C 43% 4.0 mph NE6.4 kmh NE 18.0 mph29.0 kmh 210.83 in7139.5 mb 0.00 in0.0 mm 0.00 in0.0 mm 0.00 in0.0 mm
02:25 AM 25.0°F-3.9°C 5.7°F-14.6°C 43% 7.0 mph N11.3 kmh N 18.0 mph29.0 kmh 210.83 in7139.5 mb 0.00 in0.0 mm 0.00 in0.0 mm 0.00 in0.0 mm
02:20 AM 25.0°F-3.9°C 5.7°F-14.6°C 43% 10.0 mph N16.1 kmh N 18.0 mph29.0 kmh 210.82 in7139.2 mb 0.00 in0.0 mm 0.00 in0.0 mm 0.00 in0.0 mm
02:15 AM 25.0°F-3.9°C 5.7°F-14.6°C 43% 7.0 mph N11.3 kmh N 18.0 mph29.0 kmh 210.82 in7139.2 mb 0.00 in0.0 mm 0.00 in0.0 mm 0.00 in0.0 mm
02:10 AM 25.0°F-3.9°C 5.7°F-14.6°C 43% 7.0 mph NNW11.3 kmh NNW 18.0 mph29.0 kmh 210.83 in7139.5 mb 0.00 in0.0 mm 0.00 in0.0 mm 0.00 in0.0 mm
02:05 AM 26.0°F-3.3°C 6.6°F-14.1°C 43% 4.0 mph N6.4 kmh N 18.0 mph29.0 kmh 210.83 in7139.5 mb 0.00 in0.0 mm 0.00 in0.0 mm 0.00 in0.0 mm
02:00 AM 26.0°F-3.3°C 6.6°F-14.1°C 43% 6.0 mph N9.7 kmh N 18.0 mph29.0 kmh 210.83 in7139.5 mb 0.00 in0.0 mm 0.00 in0.0 mm 0.00 in0.0 mm
01:55 AM 26.0°F-3.3°C 6.6°F-14.1°C 43% 5.0 mph N8.0 kmh N 18.0 mph29.0 kmh 210.83 in7139.5 mb 0.00 in0.0 mm 0.00 in0.0 mm 0.00 in0.0 mm
01:50 AM 26.0°F-3.3°C 6.6°F-14.1°C 43% 7.0 mph NW11.3 kmh NW 18.0 mph29.0 kmh 210.82 in7139.2 mb 0.00 in0.0 mm 0.00 in0.0 mm 0.00 in0.0 mm
01:45 AM 26.0°F-3.3°C 6.6°F-14.1°C 43% 6.0 mph N9.7 kmh N 18.0 mph29.0 kmh 210.82 in7139.2 mb 0.00 in0.0 mm 0.00 in0.0 mm 0.00 in0.0 mm
01:40 AM 26.0°F-3.3°C 6.6°F-14.1°C 43% 8.0 mph NNE12.9 kmh NNE 18.0 mph29.0 kmh 210.83 in7139.5 mb 0.00 in0.0 mm 0.00 in0.0 mm 0.00 in0.0 mm
01:35 AM 26.0°F-3.3°C 6.6°F-14.1°C 43% 7.0 mph N11.3 kmh N 18.0 mph29.0 kmh 210.83 in7139.5 mb 0.00 in0.0 mm 0.00 in0.0 mm 0.00 in0.0 mm
01:30 AM 26.0°F-3.3°C 6.6°F-14.1°C 43% 6.0 mph NNW9.7 kmh NNW 18.0 mph29.0 kmh 210.82 in7139.2 mb 0.00 in0.0 mm 0.00 in0.0 mm 0.00 in0.0 mm
01:25 AM 26.0°F-3.3°C 6.6°F-14.1°C 43% 15.0 mph NE24.1 kmh NE 18.0 mph29.0 kmh 210.82 in7139.2 mb 0.00 in0.0 mm 0.00 in0.0 mm 0.00 in0.0 mm
01:20 AM 26.0°F-3.3°C 6.6°F-14.1°C 43% 9.0 mph N14.5 kmh N 18.0 mph29.0 kmh 210.83 in7139.5 mb 0.00 in0.0 mm 0.00 in0.0 mm 0.00 in0.0 mm
01:15 AM 26.0°F-3.3°C 6.6°F-14.1°C 43% 7.0 mph NE11.3 kmh NE 18.0 mph29.0 kmh 210.83 in7139.5 mb 0.00 in0.0 mm 0.00 in0.0 mm 0.00 in0.0 mm
01:10 AM 26.0°F-3.3°C 6.6°F-14.1°C 43% 14.0 mph N22.5 kmh N 18.0 mph29.0 kmh 210.83 in7139.5 mb 0.00 in0.0 mm 0.00 in0.0 mm 0.00 in0.0 mm
01:05 AM 26.0°F-3.3°C 6.6°F-14.1°C 43% 7.0 mph N11.3 kmh N 18.0 mph29.0 kmh 210.83 in7139.5 mb 0.00 in0.0 mm 0.00 in0.0 mm 0.00 in0.0 mm
01:00 AM 26.0°F-3.3°C 6.6°F-14.1°C 43% 7.0 mph NW11.3 kmh NW 18.0 mph29.0 kmh 210.83 in7139.5 mb 0.00 in0.0 mm 0.00 in0.0 mm 0.00 in0.0 mm
12:55 AM 26.0°F-3.3°C 6.6°F-14.1°C 43% 10.0 mph N16.1 kmh N 18.0 mph29.0 kmh 210.83 in7139.5 mb 0.00 in0.0 mm 0.00 in0.0 mm 0.00 in0.0 mm
12:50 AM 26.0°F-3.3°C 6.6°F-14.1°C 43% 6.0 mph NNW9.7 kmh NNW 18.0 mph29.0 kmh 210.83 in7139.5 mb 0.00 in0.0 mm 0.00 in0.0 mm 0.00 in0.0 mm
12:45 AM 26.0°F-3.3°C 6.6°F-14.1°C 43% 9.0 mph NNE14.5 kmh NNE 18.0 mph29.0 kmh 210.83 in7139.5 mb 0.00 in0.0 mm 0.00 in0.0 mm 0.00 in0.0 mm
12:40 AM 26.0°F-3.3°C 6.6°F-14.1°C 43% 6.0 mph N9.7 kmh N 18.0 mph29.0 kmh 210.83 in7139.5 mb 0.00 in0.0 mm 0.00 in0.0 mm 0.00 in0.0 mm
12:35 AM 26.0°F-3.3°C 6.6°F-14.1°C 43% 8.0 mph NNW12.9 kmh NNW 18.0 mph29.0 kmh 210.83 in7139.5 mb 0.00 in0.0 mm 0.00 in0.0 mm 0.00 in0.0 mm
12:30 AM 26.0°F-3.3°C 6.6°F-14.1°C 43% 11.0 mph NNW17.7 kmh NNW 18.0 mph29.0 kmh 210.83 in7139.5 mb 0.00 in0.0 mm 0.00 in0.0 mm 0.00 in0.0 mm
12:25 AM 27.0°F-2.8°C 7.5°F-13.6°C 43% 16.0 mph N25.7 kmh N 17.0 mph27.4 kmh 210.83 in7139.5 mb 0.00 in0.0 mm 0.00 in0.0 mm 0.00 in0.0 mm
12:20 AM 27.0°F-2.8°C 8.0°F-13.3°C 44% 12.0 mph NE19.3 kmh NE 16.0 mph25.7 kmh 210.83 in7139.5 mb 0.00 in0.0 mm 0.00 in0.0 mm 0.00 in0.0 mm
12:15 AM 27.0°F-2.8°C 8.0°F-13.3°C 44% 12.0 mph N19.3 kmh N 14.0 mph22.5 kmh 210.83 in7139.5 mb 0.00 in0.0 mm 0.00 in0.0 mm 0.00 in0.0 mm
12:10 AM 27.0°F-2.8°C 5.9°F-14.5°C 40% 10.0 mph N16.1 kmh N 12.0 mph19.3 kmh 210.83 in7139.5 mb 0.00 in0.0 mm 0.00 in0.0 mm 0.00 in0.0 mm
12:05 AM 27.0°F-2.8°C 6.4°F-14.2°C 41% 4.0 mph N6.4 kmh N 12.0 mph19.3 kmh 210.83 in7139.5 mb 0.00 in0.0 mm 0.00 in0.0 mm 0.00 in0.0 mm
12:00 AM 26.0°F-3.3°C 5.5°F-14.7°C 41% 6.0 mph N9.7 kmh N 6.0 mph9.7 kmh 210.83 in7139.5 mb 0.00 in0.0 mm 0.00 in0.0 mm 0.00 in0.0 mm